Terminal Aerodrome Forecast
Issued by NWS

Home | Current Version | Previous Version | Text Only | Print | Product List | Glossary On
Versions: 1 2 3 4 5 6 7 8 9 10 11 12 13
000
FTUS44 KTSA 312300
TAFMLC
TAF
KMLC 312340Z 0100/0124 14011KT 6SM -RA OVC040
     FM010400 16008G15KT 4SM -RA BR OVC025
     FM010700 17008G15KT 4SM -RA BR OVC008
      TEMPO 0107/0111 2SM -RA BR OVC005
     FM011400 28012G19KT P6SM OVC020 PROB30 0114/0118 6SM -RA OVC015
     FM011800 33015G23KT P6SM OVC040=

USA.gov is the U.S. government's official web portal to all federal, state and local government web resources and services.